TimeEST,TemperatureF,Dew PointF,Humidity,Sea Level PressureIn,VisibilityMPH,Wind Direction,Wind SpeedMPH,Gust SpeedMPH,PrecipitationIn,Events,Conditions,WindDirDegrees,DateUTC
12:53 AM,27.0,23.0,85,30.41,10.0,Calm,Calm,-,N/A,,Clear,0,2013-03-09 05:53:00
1:53 AM,27.0,24.1,89,30.39,10.0,Calm,Calm,-,N/A,,Clear,0,2013-03-09 06:53:00
2:53 AM,27.0,23.0,85,30.36,10.0,Calm,Calm,-,N/A,,Clear,0,2013-03-09 07:53:00
3:53 AM,26.1,21.9,84,30.35,9.0,Calm,Calm,-,N/A,,Clear,0,2013-03-09 08:53:00
4:53 AM,25.0,21.0,85,30.36,8.0,Calm,Calm,-,N/A,,Clear,0,2013-03-09 09:53:00
5:53 AM,24.1,21.0,88,30.37,8.0,Calm,Calm,-,N/A,,Clear,0,2013-03-09 10:53:00
6:53 AM,24.1,21.0,88,30.37,6.0,Calm,Calm,-,N/A,,Clear,0,2013-03-09 11:53:00
7:53 AM,27.0,24.1,89,30.39,6.0,Calm,Calm,-,N/A,,Clear,0,2013-03-09 12:53:00
9:53 AM,36.0,28.0,73,30.37,10.0,Calm,Calm,-,N/A,,Clear,0,2013-03-09 14:53:00
10:53 AM,41.0,28.0,60,30.34,10.0,Calm,Calm,-,N/A,,Clear,0,2013-03-09 15:53:00
11:53 AM,48.0,28.9,48,30.32,10.0,Calm,Calm,-,N/A,,Clear,0,2013-03-09 16:53:00
12:53 PM,51.1,28.9,43,30.29,10.0,Calm,Calm,-,N/A,,Clear,0,2013-03-09 17:53:00
1:53 PM,54.0,28.9,38,30.26,10.0,ENE,5.8,-,N/A,,Clear,60,2013-03-09 18:53:00
2:53 PM,57.0,27.0,32,30.23,10.0,Calm,Calm,-,N/A,,Clear,0,2013-03-09 19:53:00
3:53 PM,57.9,28.9,33,30.21,10.0,Calm,Calm,-,N/A,,Clear,0,2013-03-09 20:53:00
4:53 PM,60.1,28.0,30,30.20,10.0,NNW,4.6,-,N/A,,Clear,330,2013-03-09 21:53:00
5:53 PM,57.9,26.1,30,30.19,10.0,Calm,Calm,-,N/A,,Clear,0,2013-03-09 22:53:00
6:53 PM,53.1,27.0,37,30.20,10.0,NNE,3.5,-,N/A,,Clear,20,2013-03-09 23:53:00
7:53 PM,48.9,28.9,46,30.19,10.0,Calm,Calm,-,N/A,,Clear,0,2013-03-10 00:53:00
8:53 PM,46.9,27.0,46,30.19,10.0,Calm,Calm,-,N/A,,Clear,0,2013-03-10 01:53:00
9:53 PM,45.0,27.0,49,30.19,10.0,Calm,Calm,-,N/A,,Clear,0,2013-03-10 02:53:00
10:53 PM,44.1,26.1,49,30.18,10.0,SSE,4.6,-,N/A,,Clear,150,2013-03-10 03:53:00
11:53 PM,44.1,24.1,45,30.17,10.0,Calm,Calm,-,N/A,,Clear,0,2013-03-10 04:53:00